sensor_id;sensor_type;location;lat;lon;timestamp;P1;durP1;ratioP1;P2;durP2;ratioP2
2706;SDS011;7819;48.046;7.642;2023-03-31T00:00:28;3.77;;;2.50;;
2706;SDS011;7819;48.046;7.642;2023-03-31T00:02:53;5.17;;;3.10;;
2706;SDS011;7819;48.046;7.642;2023-03-31T00:05:20;3.33;;;2.10;;
2706;SDS011;7819;48.046;7.642;2023-03-31T00:07:45;5.03;;;3.30;;
2706;SDS011;7819;48.046;7.642;2023-03-31T00:10:12;4.50;;;2.77;;
2706;SDS011;7819;48.046;7.642;2023-03-31T00:12:38;3.97;;;2.40;;
2706;SDS011;7819;48.046;7.642;2023-03-31T00:15:03;5.57;;;2.80;;
2706;SDS011;7819;48.046;7.642;2023-03-31T00:17:29;4.87;;;2.50;;
2706;SDS011;7819;48.046;7.642;2023-03-31T00:19:57;11.40;;;4.13;;
2706;SDS011;7819;48.046;7.642;2023-03-31T00:22:24;5.37;;;2.53;;
2706;SDS011;7819;48.046;7.642;2023-03-31T00:24:51;4.47;;;3.20;;
2706;SDS011;7819;48.046;7.642;2023-03-31T00:27:16;5.17;;;2.93;;
2706;SDS011;7819;48.046;7.642;2023-03-31T00:29:41;3.70;;;2.50;;
2706;SDS011;7819;48.046;7.642;2023-03-31T00:32:07;3.77;;;2.70;;
2706;SDS011;7819;48.046;7.642;2023-03-31T00:34:32;4.33;;;2.90;;
2706;SDS011;7819;48.046;7.642;2023-03-31T00:36:58;5.60;;;2.83;;
2706;SDS011;7819;48.046;7.642;2023-03-31T00:39:26;7.00;;;2.50;;
2706;SDS011;7819;48.046;7.642;2023-03-31T00:41:55;6.10;;;2.90;;
2706;SDS011;7819;48.046;7.642;2023-03-31T00:44:21;4.63;;;2.90;;
2706;SDS011;7819;48.046;7.642;2023-03-31T00:47:04;5.47;;;3.17;;
2706;SDS011;7819;48.046;7.642;2023-03-31T00:49:32;4.17;;;2.73;;
2706;SDS011;7819;48.046;7.642;2023-03-31T00:52:00;3.47;;;2.53;;
2706;SDS011;7819;48.046;7.642;2023-03-31T00:54:26;7.20;;;3.10;;
2706;SDS011;7819;48.046;7.642;2023-03-31T00:56:52;8.33;;;3.03;;
2706;SDS011;7819;48.046;7.642;2023-03-31T00:59:19;3.90;;;2.70;;
2706;SDS011;7819;48.046;7.642;2023-03-31T01:01:45;4.27;;;2.67;;
2706;SDS011;7819;48.046;7.642;2023-03-31T01:04:14;3.80;;;2.60;;
2706;SDS011;7819;48.046;7.642;2023-03-31T01:06:43;5.20;;;3.10;;
2706;SDS011;7819;48.046;7.642;2023-03-31T01:09:14;3.83;;;3.10;;
2706;SDS011;7819;48.046;7.642;2023-03-31T01:11:40;3.90;;;2.77;;
2706;SDS011;7819;48.046;7.642;2023-03-31T01:14:06;3.33;;;2.90;;
2706;SDS011;7819;48.046;7.642;2023-03-31T01:16:32;2.93;;;2.63;;
2706;SDS011;7819;48.046;7.642;2023-03-31T01:18:57;5.00;;;2.83;;
2706;SDS011;7819;48.046;7.642;2023-03-31T01:27:08;6.40;;;3.13;;
2706;SDS011;7819;48.046;7.642;2023-03-31T01:29:52;5.17;;;3.30;;
2706;SDS011;7819;48.046;7.642;2023-03-31T01:40:05;4.00;;;3.13;;
2706;SDS011;7819;48.046;7.642;2023-03-31T01:42:35;5.50;;;3.13;;
2706;SDS011;7819;48.046;7.642;2023-03-31T01:50:19;4.03;;;3.10;;
2706;SDS011;7819;48.046;7.642;2023-03-31T01:53:00;3.57;;;3.20;;
2706;SDS011;7819;48.046;7.642;2023-03-31T01:57:54;3.37;;;3.03;;
2706;SDS011;7819;48.046;7.642;2023-03-31T02:00:26;5.13;;;3.60;;
2706;SDS011;7819;48.046;7.642;2023-03-31T02:03:04;5.50;;;3.70;;
2706;SDS011;7819;48.046;7.642;2023-03-31T02:05:34;5.77;;;3.33;;
2706;SDS011;7819;48.046;7.642;2023-03-31T02:08:03;6.33;;;3.73;;
2706;SDS011;7819;48.046;7.642;2023-03-31T02:10:30;4.20;;;3.70;;
2706;SDS011;7819;48.046;7.642;2023-03-31T02:12:56;7.07;;;3.80;;
2706;SDS011;7819;48.046;7.642;2023-03-31T02:15:25;10.00;;;4.20;;
2706;SDS011;7819;48.046;7.642;2023-03-31T02:17:52;6.40;;;3.80;;
2706;SDS011;7819;48.046;7.642;2023-03-31T02:20:19;5.37;;;4.13;;
2706;SDS011;7819;48.046;7.642;2023-03-31T02:22:46;4.53;;;4.03;;
2706;SDS011;7819;48.046;7.642;2023-03-31T02:25:13;4.37;;;3.97;;
2706;SDS011;7819;48.046;7.642;2023-03-31T02:27:41;5.30;;;4.40;;
2706;SDS011;7819;48.046;7.642;2023-03-31T02:30:07;5.50;;;4.50;;
2706;SDS011;7819;48.046;7.642;2023-03-31T02:32:34;6.77;;;3.50;;
2706;SDS011;7819;48.046;7.642;2023-03-31T02:35:01;6.30;;;3.90;;
2706;SDS011;7819;48.046;7.642;2023-03-31T02:37:27;4.80;;;4.00;;
2706;SDS011;7819;48.046;7.642;2023-03-31T02:39:52;7.83;;;3.97;;
2706;SDS011;7819;48.046;7.642;2023-03-31T02:42:19;5.13;;;3.70;;
2706;SDS011;7819;48.046;7.642;2023-03-31T02:44:44;5.43;;;4.00;;
2706;SDS011;7819;48.046;7.642;2023-03-31T02:47:13;7.30;;;3.87;;
2706;SDS011;7819;48.046;7.642;2023-03-31T02:49:40;7.47;;;3.50;;
2706;SDS011;7819;48.046;7.642;2023-03-31T03:11:19;5.30;;;4.50;;
2706;SDS011;7819;48.046;7.642;2023-03-31T03:15:49;5.40;;;3.73;;
2706;SDS011;7819;48.046;7.642;2023-03-31T03:18:16;8.00;;;3.63;;
2706;SDS011;7819;48.046;7.642;2023-03-31T03:20:42;6.00;;;4.20;;
2706;SDS011;7819;48.046;7.642;2023-03-31T03:23:12;9.60;;;3.70;;
2706;SDS011;7819;48.046;7.642;2023-03-31T03:25:37;4.73;;;3.83;;
2706;SDS011;7819;48.046;7.642;2023-03-31T03:28:02;6.80;;;3.60;;
2706;SDS011;7819;48.046;7.642;2023-03-31T03:30:28;5.93;;;4.17;;
2706;SDS011;7819;48.046;7.642;2023-03-31T03:32:53;6.80;;;4.23;;
2706;SDS011;7819;48.046;7.642;2023-03-31T03:35:19;7.70;;;4.00;;
2706;SDS011;7819;48.046;7.642;2023-03-31T03:37:45;5.03;;;3.80;;
2706;SDS011;7819;48.046;7.642;2023-03-31T03:40:10;6.80;;;4.30;;
2706;SDS011;7819;48.046;7.642;2023-03-31T03:42:35;6.33;;;4.03;;
2706;SDS011;7819;48.046;7.642;2023-03-31T03:45:02;5.13;;;4.10;;
2706;SDS011;7819;48.046;7.642;2023-03-31T03:47:27;7.97;;;4.53;;
2706;SDS011;7819;48.046;7.642;2023-03-31T03:49:52;7.50;;;3.80;;
2706;SDS011;7819;48.046;7.642;2023-03-31T03:52:18;7.97;;;4.00;;
2706;SDS011;7819;48.046;7.642;2023-03-31T03:54:43;8.37;;;4.17;;
2706;SDS011;7819;48.046;7.642;2023-03-31T03:57:08;8.20;;;4.60;;
2706;SDS011;7819;48.046;7.642;2023-03-31T03:59:33;4.53;;;3.50;;
2706;SDS011;7819;48.046;7.642;2023-03-31T04:01:58;4.97;;;4.40;;
2706;SDS011;7819;48.046;7.642;2023-03-31T04:04:24;7.10;;;4.57;;
2706;SDS011;7819;48.046;7.642;2023-03-31T04:06:49;5.70;;;4.10;;
2706;SDS011;7819;48.046;7.642;2023-03-31T04:09:14;5.80;;;4.27;;
2706;SDS011;7819;48.046;7.642;2023-03-31T04:11:39;4.37;;;3.97;;
2706;SDS011;7819;48.046;7.642;2023-03-31T04:14:05;8.50;;;4.27;;
2706;SDS011;7819;48.046;7.642;2023-03-31T04:16:30;4.73;;;3.90;;
2706;SDS011;7819;48.046;7.642;2023-03-31T04:18:56;7.03;;;4.27;;
2706;SDS011;7819;48.046;7.642;2023-03-31T04:21:22;7.30;;;4.10;;
2706;SDS011;7819;48.046;7.642;2023-03-31T04:23:48;5.17;;;3.80;;
2706;SDS011;7819;48.046;7.642;2023-03-31T04:26:15;4.90;;;4.40;;
2706;SDS011;7819;48.046;7.642;2023-03-31T04:28:40;5.43;;;4.13;;
2706;SDS011;7819;48.046;7.642;2023-03-31T04:31:11;5.80;;;4.20;;
2706;SDS011;7819;48.046;7.642;2023-03-31T04:33:40;11.57;;;5.80;;
2706;SDS011;7819;48.046;7.642;2023-03-31T04:36:09;6.07;;;4.60;;
2706;SDS011;7819;48.046;7.642;2023-03-31T04:38:48;5.73;;;4.90;;
2706;SDS011;7819;48.046;7.642;2023-03-31T04:41:19;10.07;;;5.20;;
2706;SDS011;7819;48.046;7.642;2023-03-31T04:43:45;9.50;;;5.40;;
2706;SDS011;7819;48.046;7.642;2023-03-31T04:46:10;6.33;;;5.13;;
2706;SDS011;7819;48.046;7.642;2023-03-31T04:48:35;9.17;;;4.97;;
2706;SDS011;7819;48.046;7.642;2023-03-31T04:51:01;5.83;;;4.63;;
2706;SDS011;7819;48.046;7.642;2023-03-31T04:53:26;6.27;;;4.33;;
2706;SDS011;7819;48.046;7.642;2023-03-31T04:55:51;10.50;;;5.50;;
2706;SDS011;7819;48.046;7.642;2023-03-31T04:58:17;9.97;;;4.70;;
2706;SDS011;7819;48.046;7.642;2023-03-31T05:00:42;15.17;;;7.50;;
2706;SDS011;7819;48.046;7.642;2023-03-31T05:03:07;8.90;;;7.60;;
2706;SDS011;7819;48.046;7.642;2023-03-31T05:05:33;8.43;;;5.20;;
2706;SDS011;7819;48.046;7.642;2023-03-31T05:07:59;9.30;;;5.97;;
2706;SDS011;7819;48.046;7.642;2023-03-31T05:10:24;7.70;;;6.23;;
2706;SDS011;7819;48.046;7.642;2023-03-31T05:12:49;6.97;;;5.80;;
2706;SDS011;7819;48.046;7.642;2023-03-31T05:15:15;9.13;;;6.60;;
2706;SDS011;7819;48.046;7.642;2023-03-31T05:17:40;6.70;;;5.57;;
2706;SDS011;7819;48.046;7.642;2023-03-31T05:20:05;7.70;;;5.70;;
2706;SDS011;7819;48.046;7.642;2023-03-31T05:22:36;11.73;;;6.17;;
2706;SDS011;7819;48.046;7.642;2023-03-31T05:25:01;7.87;;;6.50;;
2706;SDS011;7819;48.046;7.642;2023-03-31T05:27:28;6.97;;;6.37;;
2706;SDS011;7819;48.046;7.642;2023-03-31T05:29:53;10.00;;;6.43;;
2706;SDS011;7819;48.046;7.642;2023-03-31T05:32:18;8.37;;;5.70;;
2706;SDS011;7819;48.046;7.642;2023-03-31T05:34:43;10.83;;;6.50;;
2706;SDS011;7819;48.046;7.642;2023-03-31T05:37:08;8.00;;;6.50;;
2706;SDS011;7819;48.046;7.642;2023-03-31T05:39:33;7.27;;;6.23;;
2706;SDS011;7819;48.046;7.642;2023-03-31T05:41:59;7.47;;;5.93;;
2706;SDS011;7819;48.046;7.642;2023-03-31T05:44:24;8.90;;;5.87;;
2706;SDS011;7819;48.046;7.642;2023-03-31T05:46:51;7.60;;;6.90;;
2706;SDS011;7819;48.046;7.642;2023-03-31T05:49:16;9.00;;;5.83;;
2706;SDS011;7819;48.046;7.642;2023-03-31T05:51:41;9.40;;;7.43;;
2706;SDS011;7819;48.046;7.642;2023-03-31T05:54:06;8.77;;;7.90;;
2706;SDS011;7819;48.046;7.642;2023-03-31T05:56:32;6.50;;;4.57;;
2706;SDS011;7819;48.046;7.642;2023-03-31T05:58:58;5.80;;;5.27;;
2706;SDS011;7819;48.046;7.642;2023-03-31T06:01:23;9.60;;;5.60;;
2706;SDS011;7819;48.046;7.642;2023-03-31T06:03:49;11.10;;;4.20;;
2706;SDS011;7819;48.046;7.642;2023-03-31T06:06:14;4.00;;;3.70;;
2706;SDS011;7819;48.046;7.642;2023-03-31T06:08:40;3.60;;;3.40;;
2706;SDS011;7819;48.046;7.642;2023-03-31T06:11:06;4.63;;;4.00;;
2706;SDS011;7819;48.046;7.642;2023-03-31T06:13:33;6.73;;;4.10;;
2706;SDS011;7819;48.046;7.642;2023-03-31T06:15:59;4.73;;;4.10;;
2706;SDS011;7819;48.046;7.642;2023-03-31T06:18:25;5.40;;;4.07;;
2706;SDS011;7819;48.046;7.642;2023-03-31T06:20:52;5.13;;;4.07;;
2706;SDS011;7819;48.046;7.642;2023-03-31T06:23:17;5.10;;;4.20;;
2706;SDS011;7819;48.046;7.642;2023-03-31T06:25:42;5.00;;;4.40;;
2706;SDS011;7819;48.046;7.642;2023-03-31T06:28:08;5.75;;;5.07;;
2706;SDS011;7819;48.046;7.642;2023-03-31T06:30:33;5.83;;;5.13;;
2706;SDS011;7819;48.046;7.642;2023-03-31T06:32:58;4.53;;;4.13;;
2706;SDS011;7819;48.046;7.642;2023-03-31T06:35:23;6.80;;;4.03;;
2706;SDS011;7819;48.046;7.642;2023-03-31T06:37:49;4.70;;;4.10;;
2706;SDS011;7819;48.046;7.642;2023-03-31T06:40:14;6.40;;;3.77;;
2706;SDS011;7819;48.046;7.642;2023-03-31T06:42:39;4.53;;;4.13;;
2706;SDS011;7819;48.046;7.642;2023-03-31T06:45:05;5.40;;;5.00;;
2706;SDS011;7819;48.046;7.642;2023-03-31T06:47:30;3.30;;;3.00;;
2706;SDS011;7819;48.046;7.642;2023-03-31T06:49:55;3.47;;;3.17;;
2706;SDS011;7819;48.046;7.642;2023-03-31T06:52:20;6.28;;;4.32;;
2706;SDS011;7819;48.046;7.642;2023-03-31T06:54:45;4.63;;;4.23;;
2706;SDS011;7819;48.046;7.642;2023-03-31T06:57:11;4.47;;;3.73;;
2706;SDS011;7819;48.046;7.642;2023-03-31T06:59:36;6.67;;;4.03;;
2706;SDS011;7819;48.046;7.642;2023-03-31T07:02:01;9.10;;;4.57;;
2706;SDS011;7819;48.046;7.642;2023-03-31T07:04:26;3.53;;;3.23;;
2706;SDS011;7819;48.046;7.642;2023-03-31T07:06:52;4.73;;;3.10;;
2706;SDS011;7819;48.046;7.642;2023-03-31T07:09:17;3.10;;;1.73;;
2706;SDS011;7819;48.046;7.642;2023-03-31T07:11:42;2.80;;;1.60;;
2706;SDS011;7819;48.046;7.642;2023-03-31T07:14:07;4.30;;;2.13;;
2706;SDS011;7819;48.046;7.642;2023-03-31T07:16:33;3.37;;;1.70;;
2706;SDS011;7819;48.046;7.642;2023-03-31T07:18:58;4.33;;;1.40;;
2706;SDS011;7819;48.046;7.642;2023-03-31T07:21:23;4.60;;;1.20;;
2706;SDS011;7819;48.046;7.642;2023-03-31T07:23:49;1.77;;;1.27;;
2706;SDS011;7819;48.046;7.642;2023-03-31T07:26:14;2.50;;;1.23;;
2706;SDS011;7819;48.046;7.642;2023-03-31T07:28:39;1.20;;;0.80;;
2706;SDS011;7819;48.046;7.642;2023-03-31T07:31:14;4.30;;;1.60;;
2706;SDS011;7819;48.046;7.642;2023-03-31T07:33:40;2.30;;;1.23;;
2706;SDS011;7819;48.046;7.642;2023-03-31T07:36:06;1.50;;;1.00;;
2706;SDS011;7819;48.046;7.642;2023-03-31T07:38:31;3.13;;;1.27;;
2706;SDS011;7819;48.046;7.642;2023-03-31T07:40:56;29.33;;;11.47;;
2706;SDS011;7819;48.046;7.642;2023-03-31T07:43:21;2.67;;;1.67;;
2706;SDS011;7819;48.046;7.642;2023-03-31T07:45:46;7.80;;;5.20;;
2706;SDS011;7819;48.046;7.642;2023-03-31T07:48:12;14.37;;;8.30;;
2706;SDS011;7819;48.046;7.642;2023-03-31T07:50:37;5.50;;;2.57;;
2706;SDS011;7819;48.046;7.642;2023-03-31T07:53:02;3.00;;;1.33;;
2706;SDS011;7819;48.046;7.642;2023-03-31T07:55:27;2.70;;;1.40;;
2706;SDS011;7819;48.046;7.642;2023-03-31T07:57:53;4.13;;;2.63;;
2706;SDS011;7819;48.046;7.642;2023-03-31T08:00:18;1.57;;;0.70;;
2706;SDS011;7819;48.046;7.642;2023-03-31T08:02:43;2.03;;;1.20;;
2706;SDS011;7819;48.046;7.642;2023-03-31T08:05:09;1.57;;;0.77;;
2706;SDS011;7819;48.046;7.642;2023-03-31T08:07:36;1.33;;;0.90;;
2706;SDS011;7819;48.046;7.642;2023-03-31T08:10:03;2.50;;;0.83;;
2706;SDS011;7819;48.046;7.642;2023-03-31T08:12:29;2.70;;;1.10;;
2706;SDS011;7819;48.046;7.642;2023-03-31T08:14:54;2.80;;;1.37;;
2706;SDS011;7819;48.046;7.642;2023-03-31T08:17:19;8.97;;;1.50;;
2706;SDS011;7819;48.046;7.642;2023-03-31T08:19:44;5.80;;;1.23;;
2706;SDS011;7819;48.046;7.642;2023-03-31T08:22:10;3.27;;;1.00;;
2706;SDS011;7819;48.046;7.642;2023-03-31T08:24:35;5.57;;;1.80;;
2706;SDS011;7819;48.046;7.642;2023-03-31T08:27:00;3.90;;;1.40;;
2706;SDS011;7819;48.046;7.642;2023-03-31T08:29:25;3.13;;;1.37;;
2706;SDS011;7819;48.046;7.642;2023-03-31T08:31:51;5.97;;;2.80;;
2706;SDS011;7819;48.046;7.642;2023-03-31T08:34:17;6.60;;;1.37;;
2706;SDS011;7819;48.046;7.642;2023-03-31T08:36:42;5.77;;;3.40;;
2706;SDS011;7819;48.046;7.642;2023-03-31T08:39:07;4.40;;;1.30;;
2706;SDS011;7819;48.046;7.642;2023-03-31T08:44:07;4.43;;;1.50;;
2706;SDS011;7819;48.046;7.642;2023-03-31T08:46:32;9.33;;;1.80;;
2706;SDS011;7819;48.046;7.642;2023-03-31T08:48:59;3.63;;;1.50;;
2706;SDS011;7819;48.046;7.642;2023-03-31T08:51:27;8.03;;;1.50;;
2706;SDS011;7819;48.046;7.642;2023-03-31T08:56:27;4.43;;;1.10;;
2706;SDS011;7819;48.046;7.642;2023-03-31T08:58:52;5.70;;;1.43;;
2706;SDS011;7819;48.046;7.642;2023-03-31T09:07:03;5.50;;;1.47;;
2706;SDS011;7819;48.046;7.642;2023-03-31T09:11:55;5.20;;;1.50;;
2706;SDS011;7819;48.046;7.642;2023-03-31T09:14:25;4.40;;;1.30;;
2706;SDS011;7819;48.046;7.642;2023-03-31T09:16:55;2.60;;;1.03;;
2706;SDS011;7819;48.046;7.642;2023-03-31T09:22:07;3.20;;;1.10;;
2706;SDS011;7819;48.046;7.642;2023-03-31T09:24:35;9.20;;;2.23;;
2706;SDS011;7819;48.046;7.642;2023-03-31T09:27:06;3.93;;;1.53;;
2706;SDS011;7819;48.046;7.642;2023-03-31T09:29:36;9.90;;;5.83;;
2706;SDS011;7819;48.046;7.642;2023-03-31T09:32:16;4.50;;;1.20;;
2706;SDS011;7819;48.046;7.642;2023-03-31T09:34:42;2.63;;;1.20;;
2706;SDS011;7819;48.046;7.642;2023-03-31T09:37:10;5.47;;;3.00;;
2706;SDS011;7819;48.046;7.642;2023-03-31T09:39:35;4.30;;;1.80;;
2706;SDS011;7819;48.046;7.642;2023-03-31T09:42:00;3.13;;;1.10;;
2706;SDS011;7819;48.046;7.642;2023-03-31T09:44:26;3.13;;;1.23;;
2706;SDS011;7819;48.046;7.642;2023-03-31T09:46:53;6.20;;;1.70;;
2706;SDS011;7819;48.046;7.642;2023-03-31T09:49:19;3.30;;;1.10;;
2706;SDS011;7819;48.046;7.642;2023-03-31T09:51:45;3.80;;;1.00;;
2706;SDS011;7819;48.046;7.642;2023-03-31T09:56:47;8.67;;;1.70;;
2706;SDS011;7819;48.046;7.642;2023-03-31T09:59:32;4.90;;;1.70;;
2706;SDS011;7819;48.046;7.642;2023-03-31T10:01:59;5.50;;;1.23;;
2706;SDS011;7819;48.046;7.642;2023-03-31T10:04:27;3.33;;;1.40;;
2706;SDS011;7819;48.046;7.642;2023-03-31T10:06:53;3.33;;;1.27;;
2706;SDS011;7819;48.046;7.642;2023-03-31T10:09:29;7.80;;;1.17;;
2706;SDS011;7819;48.046;7.642;2023-03-31T10:12:08;10.07;;;3.37;;
2706;SDS011;7819;48.046;7.642;2023-03-31T10:14:49;3.10;;;1.33;;
2706;SDS011;7819;48.046;7.642;2023-03-31T10:17:19;6.00;;;2.00;;
2706;SDS011;7819;48.046;7.642;2023-03-31T10:19:49;7.30;;;2.23;;
2706;SDS011;7819;48.046;7.642;2023-03-31T10:22:16;6.00;;;1.63;;
2706;SDS011;7819;48.046;7.642;2023-03-31T10:24:50;2.93;;;1.20;;
2706;SDS011;7819;48.046;7.642;2023-03-31T10:29:41;6.22;;;1.40;;
2706;SDS011;7819;48.046;7.642;2023-03-31T10:32:12;2.00;;;1.20;;
2706;SDS011;7819;48.046;7.642;2023-03-31T10:34:39;2.70;;;1.03;;
2706;SDS011;7819;48.046;7.642;2023-03-31T10:37:06;1.97;;;0.70;;
2706;SDS011;7819;48.046;7.642;2023-03-31T10:39:31;1.37;;;0.40;;
2706;SDS011;7819;48.046;7.642;2023-03-31T10:41:57;1.00;;;0.33;;
2706;SDS011;7819;48.046;7.642;2023-03-31T10:44:33;1.00;;;0.50;;
2706;SDS011;7819;48.046;7.642;2023-03-31T10:47:04;2.80;;;1.33;;
2706;SDS011;7819;48.046;7.642;2023-03-31T10:49:33;1.00;;;0.47;;
2706;SDS011;7819;48.046;7.642;2023-03-31T10:52:00;2.63;;;0.60;;
2706;SDS011;7819;48.046;7.642;2023-03-31T10:54:26;2.00;;;0.53;;
2706;SDS011;7819;48.046;7.642;2023-03-31T10:56:51;1.93;;;0.87;;
2706;SDS011;7819;48.046;7.642;2023-03-31T11:09:34;1.40;;;0.83;;
2706;SDS011;7819;48.046;7.642;2023-03-31T11:17:11;2.47;;;0.90;;
2706;SDS011;7819;48.046;7.642;2023-03-31T11:22:14;1.53;;;0.60;;
2706;SDS011;7819;48.046;7.642;2023-03-31T11:27:26;2.63;;;0.83;;
2706;SDS011;7819;48.046;7.642;2023-03-31T11:37:39;1.37;;;0.80;;
2706;SDS011;7819;48.046;7.642;2023-03-31T11:42:33;6.83;;;1.20;;
2706;SDS011;7819;48.046;7.642;2023-03-31T11:45:04;4.10;;;1.53;;
2706;SDS011;7819;48.046;7.642;2023-03-31T11:47:35;4.50;;;1.30;;
2706;SDS011;7819;48.046;7.642;2023-03-31T11:50:03;6.03;;;1.40;;
2706;SDS011;7819;48.046;7.642;2023-03-31T11:52:32;1.77;;;0.80;;
2706;SDS011;7819;48.046;7.642;2023-03-31T11:55:02;3.27;;;1.00;;
2706;SDS011;7819;48.046;7.642;2023-03-31T12:00:19;2.77;;;0.80;;
2706;SDS011;7819;48.046;7.642;2023-03-31T12:02:47;2.60;;;0.80;;
2706;SDS011;7819;48.046;7.642;2023-03-31T12:05:14;5.23;;;1.47;;
2706;SDS011;7819;48.046;7.642;2023-03-31T12:07:42;2.83;;;0.77;;
2706;SDS011;7819;48.046;7.642;2023-03-31T12:12:54;3.10;;;0.80;;
2706;SDS011;7819;48.046;7.642;2023-03-31T12:15:22;4.50;;;0.80;;
2706;SDS011;7819;48.046;7.642;2023-03-31T12:17:52;4.53;;;1.40;;
2706;SDS011;7819;48.046;7.642;2023-03-31T12:20:29;7.97;;;1.70;;
2706;SDS011;7819;48.046;7.642;2023-03-31T12:22:56;6.47;;;1.43;;
2706;SDS011;7819;48.046;7.642;2023-03-31T12:25:22;3.93;;;2.20;;
2706;SDS011;7819;48.046;7.642;2023-03-31T12:27:50;3.17;;;1.10;;
2706;SDS011;7819;48.046;7.642;2023-03-31T12:32:42;6.97;;;1.40;;
2706;SDS011;7819;48.046;7.642;2023-03-31T12:35:19;6.90;;;1.10;;
2706;SDS011;7819;48.046;7.642;2023-03-31T12:38:07;5.60;;;1.30;;
2706;SDS011;7819;48.046;7.642;2023-03-31T12:40:39;4.10;;;1.53;;
2706;SDS011;7819;48.046;7.642;2023-03-31T12:45:38;6.20;;;1.15;;
2706;SDS011;7819;48.046;7.642;2023-03-31T12:53:40;8.13;;;1.83;;
2706;SDS011;7819;48.046;7.642;2023-03-31T12:56:01;4.00;;;1.03;;
2706;SDS011;7819;48.046;7.642;2023-03-31T13:03:40;2.43;;;1.10;;
2706;SDS011;7819;48.046;7.642;2023-03-31T13:06:07;1.67;;;0.90;;
2706;SDS011;7819;48.046;7.642;2023-03-31T13:08:53;5.20;;;1.20;;
2706;SDS011;7819;48.046;7.642;2023-03-31T13:11:19;4.93;;;1.27;;
2706;SDS011;7819;48.046;7.642;2023-03-31T13:13:59;4.10;;;1.00;;
2706;SDS011;7819;48.046;7.642;2023-03-31T13:16:24;3.20;;;1.40;;
2706;SDS011;7819;48.046;7.642;2023-03-31T13:18:50;3.93;;;1.30;;
2706;SDS011;7819;48.046;7.642;2023-03-31T13:21:16;1.30;;;0.70;;
2706;SDS011;7819;48.046;7.642;2023-03-31T13:23:43;5.07;;;0.80;;
2706;SDS011;7819;48.046;7.642;2023-03-31T13:34:21;4.13;;;1.67;;
2706;SDS011;7819;48.046;7.642;2023-03-31T13:36:48;5.47;;;0.80;;
2706;SDS011;7819;48.046;7.642;2023-03-31T13:41:47;1.42;;;1.30;;
2706;SDS011;7819;48.046;7.642;2023-03-31T13:53:07;2.87;;;0.80;;
2706;SDS011;7819;48.046;7.642;2023-03-31T14:00:24;3.33;;;0.67;;
2706;SDS011;7819;48.046;7.642;2023-03-31T14:03:05;1.77;;;0.70;;
2706;SDS011;7819;48.046;7.642;2023-03-31T14:08:02;9.63;;;1.63;;
2706;SDS011;7819;48.046;7.642;2023-03-31T14:15:29;1.30;;;0.57;;
2706;SDS011;7819;48.046;7.642;2023-03-31T14:17:55;3.33;;;0.90;;
2706;SDS011;7819;48.046;7.642;2023-03-31T14:26:01;3.67;;;0.67;;
2706;SDS011;7819;48.046;7.642;2023-03-31T14:35:56;3.80;;;0.80;;
2706;SDS011;7819;48.046;7.642;2023-03-31T14:38:23;1.70;;;0.73;;
2706;SDS011;7819;48.046;7.642;2023-03-31T14:40:49;2.20;;;0.60;;
2706;SDS011;7819;48.046;7.642;2023-03-31T14:43:27;2.87;;;0.60;;
2706;SDS011;7819;48.046;7.642;2023-03-31T14:46:03;3.47;;;0.90;;
2706;SDS011;7819;48.046;7.642;2023-03-31T14:48:31;2.10;;;0.70;;
2706;SDS011;7819;48.046;7.642;2023-03-31T14:50:57;1.30;;;0.80;;
2706;SDS011;7819;48.046;7.642;2023-03-31T14:53:23;1.50;;;0.70;;
2706;SDS011;7819;48.046;7.642;2023-03-31T14:55:49;3.00;;;0.67;;
2706;SDS011;7819;48.046;7.642;2023-03-31T14:58:19;2.97;;;0.80;;
2706;SDS011;7819;48.046;7.642;2023-03-31T15:00:47;1.90;;;0.60;;
2706;SDS011;7819;48.046;7.642;2023-03-31T15:03:12;1.90;;;0.50;;
2706;SDS011;7819;48.046;7.642;2023-03-31T15:05:39;1.30;;;0.60;;
2706;SDS011;7819;48.046;7.642;2023-03-31T15:08:21;5.17;;;0.90;;
2706;SDS011;7819;48.046;7.642;2023-03-31T15:10:50;1.27;;;0.70;;
2706;SDS011;7819;48.046;7.642;2023-03-31T15:13:26;4.93;;;0.97;;
2706;SDS011;7819;48.046;7.642;2023-03-31T15:15:52;1.23;;;0.70;;
2706;SDS011;7819;48.046;7.642;2023-03-31T15:18:18;3.93;;;0.77;;
2706;SDS011;7819;48.046;7.642;2023-03-31T15:20:43;1.60;;;0.70;;
2706;SDS011;7819;48.046;7.642;2023-03-31T15:25:45;1.40;;;0.57;;
2706;SDS011;7819;48.046;7.642;2023-03-31T15:28:11;5.00;;;1.27;;
2706;SDS011;7819;48.046;7.642;2023-03-31T15:30:36;3.40;;;1.10;;
2706;SDS011;7819;48.046;7.642;2023-03-31T15:33:04;3.87;;;1.37;;
2706;SDS011;7819;48.046;7.642;2023-03-31T15:35:31;5.40;;;0.90;;
2706;SDS011;7819;48.046;7.642;2023-03-31T15:37:57;2.40;;;0.90;;
2706;SDS011;7819;48.046;7.642;2023-03-31T15:42:58;3.90;;;0.77;;
2706;SDS011;7819;48.046;7.642;2023-03-31T15:48:04;4.60;;;0.70;;
2706;SDS011;7819;48.046;7.642;2023-03-31T15:50:31;1.60;;;1.30;;
2706;SDS011;7819;48.046;7.642;2023-03-31T15:52:56;3.60;;;0.80;;
2706;SDS011;7819;48.046;7.642;2023-03-31T15:57:53;1.40;;;0.70;;
2706;SDS011;7819;48.046;7.642;2023-03-31T16:03:04;3.23;;;0.50;;
2706;SDS011;7819;48.046;7.642;2023-03-31T16:05:46;2.67;;;0.70;;
2706;SDS011;7819;48.046;7.642;2023-03-31T16:08:14;4.83;;;0.80;;
2706;SDS011;7819;48.046;7.642;2023-03-31T16:10:41;3.33;;;0.80;;
2706;SDS011;7819;48.046;7.642;2023-03-31T16:13:07;2.63;;;0.60;;
2706;SDS011;7819;48.046;7.642;2023-03-31T16:15:35;1.40;;;0.60;;
2706;SDS011;7819;48.046;7.642;2023-03-31T16:18:02;2.40;;;0.60;;
2706;SDS011;7819;48.046;7.642;2023-03-31T16:20:30;2.83;;;0.90;;
2706;SDS011;7819;48.046;7.642;2023-03-31T16:22:57;2.40;;;0.73;;
2706;SDS011;7819;48.046;7.642;2023-03-31T16:25:26;1.10;;;0.50;;
2706;SDS011;7819;48.046;7.642;2023-03-31T16:27:58;1.73;;;0.90;;
2706;SDS011;7819;48.046;7.642;2023-03-31T16:30:35;1.50;;;0.53;;
2706;SDS011;7819;48.046;7.642;2023-03-31T16:35:30;5.85;;;1.15;;
2706;SDS011;7819;48.046;7.642;2023-03-31T16:37:56;3.60;;;1.43;;
2706;SDS011;7819;48.046;7.642;2023-03-31T16:40:21;5.83;;;1.00;;
2706;SDS011;7819;48.046;7.642;2023-03-31T16:42:46;2.23;;;0.80;;
2706;SDS011;7819;48.046;7.642;2023-03-31T16:45:11;1.90;;;0.80;;
2706;SDS011;7819;48.046;7.642;2023-03-31T16:47:37;2.43;;;1.10;;
2706;SDS011;7819;48.046;7.642;2023-03-31T16:50:03;1.90;;;0.90;;
2706;SDS011;7819;48.046;7.642;2023-03-31T16:52:31;3.30;;;1.13;;
2706;SDS011;7819;48.046;7.642;2023-03-31T16:54:56;3.43;;;0.63;;
2706;SDS011;7819;48.046;7.642;2023-03-31T16:57:21;4.10;;;0.90;;
2706;SDS011;7819;48.046;7.642;2023-03-31T16:59:46;2.00;;;1.40;;
2706;SDS011;7819;48.046;7.642;2023-03-31T17:02:11;3.77;;;0.90;;
2706;SDS011;7819;48.046;7.642;2023-03-31T17:04:37;3.93;;;1.60;;
2706;SDS011;7819;48.046;7.642;2023-03-31T17:07:02;2.60;;;1.17;;
2706;SDS011;7819;48.046;7.642;2023-03-31T17:09:27;3.63;;;1.37;;
2706;SDS011;7819;48.046;7.642;2023-03-31T17:11:52;6.40;;;1.10;;
2706;SDS011;7819;48.046;7.642;2023-03-31T17:14:17;2.60;;;0.90;;
2706;SDS011;7819;48.046;7.642;2023-03-31T17:16:43;1.80;;;0.80;;
2706;SDS011;7819;48.046;7.642;2023-03-31T17:19:08;2.07;;;0.90;;
2706;SDS011;7819;48.046;7.642;2023-03-31T17:21:33;3.35;;;1.10;;
2706;SDS011;7819;48.046;7.642;2023-03-31T17:24:01;3.87;;;0.80;;
2706;SDS011;7819;48.046;7.642;2023-03-31T17:26:27;1.50;;;1.00;;
2706;SDS011;7819;48.046;7.642;2023-03-31T17:28:52;1.40;;;0.70;;
2706;SDS011;7819;48.046;7.642;2023-03-31T17:31:18;1.17;;;0.60;;
2706;SDS011;7819;48.046;7.642;2023-03-31T17:33:44;0.87;;;0.47;;
2706;SDS011;7819;48.046;7.642;2023-03-31T17:36:10;1.93;;;0.60;;
2706;SDS011;7819;48.046;7.642;2023-03-31T17:38:36;1.33;;;0.57;;
2706;SDS011;7819;48.046;7.642;2023-03-31T17:41:04;3.60;;;0.90;;
2706;SDS011;7819;48.046;7.642;2023-03-31T17:43:29;4.70;;;1.07;;
2706;SDS011;7819;48.046;7.642;2023-03-31T17:46:01;4.73;;;0.67;;
2706;SDS011;7819;48.046;7.642;2023-03-31T17:48:28;2.00;;;0.50;;
2706;SDS011;7819;48.046;7.642;2023-03-31T17:50:53;4.57;;;1.10;;
2706;SDS011;7819;48.046;7.642;2023-03-31T17:53:18;2.90;;;0.90;;
2706;SDS011;7819;48.046;7.642;2023-03-31T17:55:43;3.70;;;1.00;;
2706;SDS011;7819;48.046;7.642;2023-03-31T17:58:09;4.23;;;1.47;;
2706;SDS011;7819;48.046;7.642;2023-03-31T18:00:37;3.03;;;1.00;;
2706;SDS011;7819;48.046;7.642;2023-03-31T18:03:02;3.63;;;1.07;;
2706;SDS011;7819;48.046;7.642;2023-03-31T18:05:27;2.13;;;1.00;;
2706;SDS011;7819;48.046;7.642;2023-03-31T18:07:53;2.23;;;0.87;;
2706;SDS011;7819;48.046;7.642;2023-03-31T18:10:19;3.10;;;1.10;;